Time;durP1;ratioP1;P1;durP2;ratioP2;P2;SDS_P1;SDS_P2;PMS_P1;PMS_P2;Temp;Humidity;BMP_temperature;BMP_pressure;BME280_temperature;BME280_humidity;BME280_pressure;Samples;Min_cycle;Max_cycle;Signal;HPM_P1;HPM_P2
2023/01/12 00:01:23;;;;;;;3.73;1.40;;;8.10;99.90;;;;;;5009546;28;20647;-82
2023/01/12 00:03:50;;;;;;;5.20;1.40;;;8.00;99.90;;;;;;5017877;28;20234;-84
2023/01/12 00:06:18;;;;;;;6.40;1.30;;;8.10;99.90;;;;;;5018555;28;20571;-81
2023/01/12 00:08:47;;;;;;;10.63;1.70;;;8.10;99.90;;;;;;5019287;28;20627;-83
2023/01/12 00:11:14;;;;;;;8.37;1.67;;;8.00;99.90;;;;;;5018651;28;20204;-84
2023/01/12 00:13:41;;;;;;;8.60;2.00;;;8.20;99.90;;;;;;5018155;28;20234;-83
2023/01/12 00:18:59;;;;;;;5.70;1.40;;;8.10;99.90;;;;;;4997104;28;20660;-83
2023/01/12 00:21:26;;;;;;;3.60;1.50;;;8.10;99.90;;;;;;4998353;28;20213;-83
2023/01/12 00:23:54;;;;;;;6.93;1.53;;;8.10;99.90;;;;;;4998493;28;20235;-83
2023/01/12 00:26:21;;;;;;;10.20;1.50;;;8.10;99.90;;;;;;4999267;28;20232;-84
2023/01/12 00:28:48;;;;;;;6.80;1.50;;;8.20;99.90;;;;;;4997815;28;20207;-82
2023/01/12 00:31:15;;;;;;;7.67;1.40;;;8.30;99.90;;;;;;4998090;28;20292;-84
2023/01/12 00:33:42;;;;;;;7.60;1.70;;;8.40;99.90;;;;;;4998226;28;20671;-82
2023/01/12 00:36:12;;;;;;;4.43;1.40;;;8.30;99.90;;;;;;4996267;28;20224;-83
2023/01/12 00:38:39;;;;;;;9.73;1.50;;;8.30;99.90;;;;;;4998913;28;20569;-83
2023/01/12 00:41:09;;;;;;;3.90;1.20;;;8.30;99.90;;;;;;4997617;28;20717;-82
2023/01/12 00:46:30;;;;;;;7.57;1.67;;;8.20;99.90;;;;;;5017559;28;20234;-83
2023/01/12 00:48:57;;;;;;;7.50;1.73;;;8.20;99.90;;;;;;5002184;28;20192;-82
2023/01/12 00:51:23;;;;;;;9.10;1.90;;;8.10;99.90;;;;;;5017079;28;20200;-80
2023/01/12 00:53:50;;;;;;;4.00;1.27;;;8.10;99.90;;;;;;5014950;28;20594;-83
2023/01/12 00:56:18;;;;;;;5.80;1.40;;;8.20;99.90;;;;;;5017033;28;20303;-83
2023/01/12 00:58:45;;;;;;;7.60;1.80;;;8.10;99.90;;;;;;5017969;28;20205;-82
2023/01/12 01:01:12;;;;;;;3.57;1.60;;;8.00;99.90;;;;;;5017483;28;20220;-83
2023/01/12 01:03:39;;;;;;;3.47;1.27;;;8.10;99.90;;;;;;4996765;28;20231;-82
2023/01/12 01:06:07;;;;;;;3.80;1.57;;;8.20;99.90;;;;;;4997856;28;20207;-83
2023/01/12 01:08:36;;;;;;;5.57;1.50;;;8.10;99.90;;;;;;4999803;28;20201;-81
2023/01/12 01:11:05;;;;;;;5.47;1.63;;;8.10;99.90;;;;;;5017281;28;20668;-82
2023/01/12 01:13:35;;;;;;;4.80;1.57;;;8.20;99.90;;;;;;5017983;28;20224;-82
2023/01/12 01:16:03;;;;;;;6.50;1.80;;;8.10;99.90;;;;;;5004760;28;20300;-83
2023/01/12 01:18:30;;;;;;;6.47;1.33;;;8.10;99.90;;;;;;4999499;28;20200;-84
2023/01/12 01:20:57;;;;;;;6.87;1.90;;;8.10;99.90;;;;;;5015409;28;20234;-81
2023/01/12 01:23:26;;;;;;;6.27;1.47;;;8.10;99.90;;;;;;5028769;28;20227;-84
2023/01/12 01:25:53;;;;;;;4.17;1.50;;;8.20;99.90;;;;;;5020433;28;20196;-83
2023/01/12 01:28:20;;;;;;;7.03;1.90;;;8.30;99.90;;;;;;5020436;28;20208;-82
2023/01/12 01:30:48;;;;;;;5.10;1.60;;;8.40;99.90;;;;;;5020716;28;20212;-83
2023/01/12 01:33:15;;;;;;;4.90;1.60;;;8.40;99.90;;;;;;5018849;28;20608;-83
2023/01/12 01:35:42;;;;;;;5.37;1.50;;;8.40;99.90;;;;;;5019856;28;20230;-83
2023/01/12 01:38:09;;;;;;;5.90;1.40;;;8.50;99.90;;;;;;5019654;28;20291;-83
2023/01/12 01:40:42;;;;;;;5.93;1.37;;;8.40;99.90;;;;;;5020471;28;20263;-83
2023/01/12 01:43:13;;;;;;;5.70;1.70;;;8.60;99.90;;;;;;5021306;28;20259;-87
2023/01/12 01:45:41;;;;;;;3.70;1.27;;;8.60;99.90;;;;;;5015083;28;20197;-83
2023/01/12 01:48:12;;;;;;;4.23;1.43;;;8.60;99.90;;;;;;4998913;28;20204;-84
2023/01/12 01:50:44;;;;;;;7.03;1.50;;;8.80;99.90;;;;;;5016094;28;20207;-82
2023/01/12 01:53:14;;;;;;;5.97;2.00;;;8.90;99.90;;;;;;5019762;28;20224;-83
2023/01/12 01:55:48;;;;;;;3.40;1.60;;;8.70;99.90;;;;;;5020467;28;20224;-82
2023/01/12 01:58:19;;;;;;;3.33;1.67;;;8.60;99.90;;;;;;5020227;28;20225;-83
2023/01/12 02:00:47;;;;;;;5.77;1.50;;;8.50;99.90;;;;;;5012018;28;20637;-82
2023/01/12 02:03:16;;;;;;;6.20;1.27;;;8.50;99.90;;;;;;5000150;28;20233;-83
2023/01/12 02:05:45;;;;;;;4.63;1.27;;;8.50;99.90;;;;;;4999265;28;20208;-82
2023/01/12 02:08:19;;;;;;;4.90;1.10;;;8.40;99.90;;;;;;5000237;28;20215;-84
2023/01/12 02:10:46;;;;;;;3.60;1.20;;;8.40;99.90;;;;;;4999710;28;20219;-83
2023/01/12 02:18:53;;;;;;;4.43;1.20;;;8.20;99.90;;;;;;4998672;28;20654;-84
2023/01/12 02:22:00;;;;;;;2.00;0.87;;;8.20;99.90;;;;;;4999994;28;20203;-82
2023/01/12 02:24:53;;;;;;;4.33;1.33;;;8.10;99.90;;;;;;5015965;28;20218;-84
2023/01/12 02:27:33;;;;;;;4.27;1.13;;;8.10;99.90;;;;;;5007529;28;20709;-82
2023/01/12 02:30:39;;;;;;;3.30;1.00;;;8.10;99.90;;;;;;5011065;28;20207;-82
2023/01/12 02:33:23;;;;;;;5.73;1.50;;;8.20;99.90;;;;;;4993639;28;20678;-82
2023/01/12 02:35:58;;;;;;;3.37;1.40;;;8.30;99.90;;;;;;5018748;28;20220;-84
2023/01/12 02:38:35;;;;;;;5.50;1.17;;;8.40;99.90;;;;;;5018669;28;20662;-81
2023/01/12 02:41:11;;;;;;;6.80;1.60;;;8.50;99.90;;;;;;5018672;28;20246;-82
2023/01/12 02:43:38;;;;;;;2.03;1.17;;;8.50;99.90;;;;;;5018240;28;20220;-82
2023/01/12 02:46:14;;;;;;;4.60;1.50;;;8.60;99.90;;;;;;5002134;28;20599;-83
2023/01/12 02:48:48;;;;;;;5.27;1.00;;;8.70;99.90;;;;;;4999769;28;20612;-83
2023/01/12 02:51:20;;;;;;;3.67;1.40;;;8.70;99.90;;;;;;4999452;28;20220;-82
2023/01/12 02:53:50;;;;;;;3.57;1.00;;;8.70;99.90;;;;;;4998745;28;20224;-81
2023/01/12 02:56:21;;;;;;;3.60;1.10;;;8.90;99.90;;;;;;4998555;28;20247;-83
2023/01/12 02:58:52;;;;;;;1.83;1.00;;;8.90;99.90;;;;;;4998624;28;20547;-83
2023/01/12 03:01:20;;;;;;;2.80;1.00;;;8.80;99.90;;;;;;4999135;28;20284;-83
2023/01/12 03:03:49;;;;;;;2.40;0.90;;;8.80;99.90;;;;;;4999182;28;20263;-83
2023/01/12 03:06:18;;;;;;;1.60;1.10;;;9.00;99.90;;;;;;4998051;28;20205;-83
2023/01/12 03:08:47;;;;;;;2.50;0.73;;;8.80;99.90;;;;;;4999633;28;20215;-83
2023/01/12 03:11:16;;;;;;;2.63;0.87;;;8.80;99.90;;;;;;5005630;28;20291;-81
2023/01/12 03:13:47;;;;;;;0.90;0.60;;;8.80;99.90;;;;;;5017233;28;20239;-82
2023/01/12 03:16:17;;;;;;;2.23;0.93;;;8.80;99.90;;;;;;5018967;28;20211;-82
2023/01/12 03:18:53;;;;;;;2.53;0.93;;;8.70;99.90;;;;;;5003875;28;20276;-82
2023/01/12 03:21:26;;;;;;;1.53;0.67;;;8.70;99.90;;;;;;4997866;28;20189;-83
2023/01/12 03:23:58;;;;;;;1.47;0.60;;;8.70;99.90;;;;;;5000047;28;20324;-82
2023/01/12 03:26:27;;;;;;;2.67;0.60;;;8.60;99.90;;;;;;5016919;28;20200;-81
2023/01/12 03:28:59;;;;;;;3.37;1.03;;;8.60;99.90;;;;;;5017490;28;20218;-82
2023/01/12 03:31:26;;;;;;;3.37;0.60;;;8.60;99.90;;;;;;5019041;28;20568;-84
2023/01/12 03:33:55;;;;;;;0.67;0.53;;;8.60;99.90;;;;;;5018292;28;20236;-83
2023/01/12 03:36:31;;;;;;;1.13;0.50;;;8.60;99.90;;;;;;5002276;28;20216;-82
2023/01/12 03:39:08;;;;;;;3.03;0.80;;;8.70;99.90;;;;;;5017077;28;20662;-82
2023/01/12 03:41:46;;;;;;;1.30;1.07;;;8.60;99.90;;;;;;5011480;28;20201;-86
2023/01/12 03:44:20;;;;;;;1.47;0.60;;;8.50;99.90;;;;;;4997134;28;20699;-82
2023/01/12 03:46:53;;;;;;;2.27;0.77;;;8.50;99.90;;;;;;4997355;28;20236;-82
2023/01/12 03:49:29;;;;;;;2.07;1.27;;;8.60;99.90;;;;;;4997799;28;20213;-85
2023/01/12 03:51:57;;;;;;;2.87;1.00;;;8.60;99.90;;;;;;5003171;28;20225;-86
2023/01/12 03:54:26;;;;;;;3.93;0.97;;;8.60;99.90;;;;;;4997517;28;20243;-84
2023/01/12 03:56:54;;;;;;;1.00;0.60;;;8.60;99.90;;;;;;4996926;28;20231;-83
2023/01/12 03:59:22;;;;;;;1.90;0.70;;;8.60;99.90;;;;;;5016365;28;20209;-82
2023/01/12 04:01:50;;;;;;;1.20;0.60;;;8.60;99.90;;;;;;5004131;28;20342;-82
2023/01/12 04:04:17;;;;;;;1.53;0.67;;;8.60;99.90;;;;;;5006474;28;20339;-82
2023/01/12 04:06:45;;;;;;;1.50;0.77;;;8.60;99.90;;;;;;5016321;28;20218;-82
2023/01/12 04:09:11;;;;;;;1.80;0.50;;;8.50;99.90;;;;;;5014196;28;20228;-83
2023/01/12 04:14:23;;;;;;;3.57;0.90;;;8.40;99.90;;;;;;4999124;28;20243;-84
2023/01/12 04:16:50;;;;;;;2.53;0.77;;;8.30;99.90;;;;;;5017102;28;20220;-83
2023/01/12 04:19:17;;;;;;;3.97;0.80;;;8.30;99.90;;;;;;5018326;28;20208;-83
2023/01/12 04:24:29;;;;;;;5.47;2.10;;;8.30;99.90;;;;;;5017375;28;20187;-83
2023/01/12 04:26:57;;;;;;;3.60;0.87;;;8.20;99.90;;;;;;5017747;28;20215;-84
2023/01/12 04:29:24;;;;;;;2.90;1.20;;;8.30;99.90;;;;;;5016321;28;20283;-82
2023/01/12 04:31:50;;;;;;;4.17;0.90;;;8.30;99.90;;;;;;5003516;28;20207;-81
2023/01/12 04:34:17;;;;;;;9.53;3.90;;;8.30;99.90;;;;;;4998005;28;20205;-81
2023/01/12 04:36:45;;;;;;;0.80;0.50;;;8.30;99.90;;;;;;4996681;28;20229;-82
2023/01/12 04:39:12;;;;;;;1.43;0.83;;;8.30;99.90;;;;;;4996754;28;20267;-83
2023/01/12 04:41:39;;;;;;;2.50;0.67;;;8.30;99.90;;;;;;4996241;28;20300;-83
2023/01/12 04:44:06;;;;;;;2.40;1.03;;;8.30;99.90;;;;;;5001812;28;20193;-83
2023/01/12 04:46:33;;;;;;;3.50;1.23;;;8.30;99.90;;;;;;5012067;28;20204;-84
2023/01/12 04:49:00;;;;;;;3.23;0.83;;;8.30;99.90;;;;;;4997206;28;20192;-84
2023/01/12 04:51:26;;;;;;;1.67;0.77;;;8.30;99.90;;;;;;4996619;28;20206;-84
2023/01/12 04:53:55;;;;;;;1.90;0.90;;;8.30;99.90;;;;;;4998778;28;20225;-86
2023/01/12 04:56:21;;;;;;;1.67;0.90;;;8.30;99.90;;;;;;4999667;28;20229;-84
2023/01/12 04:58:48;;;;;;;1.67;0.77;;;8.30;99.90;;;;;;4999679;28;20300;-83
2023/01/12 05:01:17;;;;;;;3.13;1.03;;;8.30;99.90;;;;;;5006509;28;20205;-84
2023/01/12 05:03:44;;;;;;;1.87;1.00;;;8.30;99.90;;;;;;5001908;28;20240;-82
2023/01/12 05:06:12;;;;;;;4.23;0.73;;;8.40;99.90;;;;;;5027166;28;20201;-82
2023/01/12 05:11:28;;;;;;;3.87;0.90;;;8.30;99.90;;;;;;5023672;28;20664;-83
2023/01/12 05:13:55;;;;;;;1.80;0.80;;;8.30;99.90;;;;;;5018900;28;20240;-85
2023/01/12 05:16:22;;;;;;;1.03;0.77;;;8.40;99.90;;;;;;5004814;28;20384;-83
2023/01/12 05:18:49;;;;;;;1.67;0.77;;;8.30;99.90;;;;;;5016740;28;20200;-83
2023/01/12 05:21:17;;;;;;;2.13;0.80;;;8.30;99.90;;;;;;5019379;28;20727;-83
2023/01/12 05:23:44;;;;;;;1.03;0.50;;;8.30;99.90;;;;;;5019632;28;20628;-84
2023/01/12 05:26:12;;;;;;;2.73;0.80;;;8.30;99.90;;;;;;5018916;28;20202;-84
2023/01/12 05:28:40;;;;;;;2.23;0.83;;;8.40;99.90;;;;;;5017815;28;20263;-83
2023/01/12 05:31:09;;;;;;;5.03;1.20;;;8.30;99.90;;;;;;5002194;28;20211;-86
2023/01/12 05:33:37;;;;;;;2.07;0.73;;;8.30;99.90;;;;;;4999398;28;20235;-83
2023/01/12 05:36:05;;;;;;;3.47;0.90;;;8.40;99.90;;;;;;4998498;28;20296;-84
2023/01/12 05:38:32;;;;;;;1.17;0.80;;;8.40;99.90;;;;;;4998226;28;20295;-84
2023/01/12 05:41:00;;;;;;;2.67;0.70;;;8.40;99.90;;;;;;5000350;28;20215;-84
2023/01/12 05:46:13;;;;;;;2.73;0.87;;;8.40;99.90;;;;;;4999257;28;20196;-83
2023/01/12 05:48:40;;;;;;;2.20;0.60;;;8.50;99.90;;;;;;4999150;28;20303;-83
2023/01/12 05:51:08;;;;;;;2.87;0.73;;;8.40;99.90;;;;;;4999306;28;20216;-84
2023/01/12 05:53:35;;;;;;;2.40;0.43;;;8.50;99.90;;;;;;4998755;28;20235;-84
2023/01/12 05:56:07;;;;;;;1.60;0.60;;;8.50;99.90;;;;;;4999721;28;20658;-83
2023/01/12 05:58:34;;;;;;;4.00;0.90;;;8.50;99.90;;;;;;4999638;28;20284;-83
2023/01/12 06:01:01;;;;;;;2.07;0.60;;;8.60;99.90;;;;;;4999319;28;20201;-84
2023/01/12 06:03:29;;;;;;;1.77;0.50;;;8.50;99.90;;;;;;4998820;28;20311;-83
2023/01/12 06:05:57;;;;;;;3.97;1.00;;;8.50;99.90;;;;;;5009508;28;20272;-83
2023/01/12 06:08:24;;;;;;;0.93;0.50;;;8.50;99.90;;;;;;5018175;28;20200;-84
2023/01/12 06:10:51;;;;;;;2.63;0.70;;;8.40;99.90;;;;;;5018291;28;20231;-84
2023/01/12 06:16:04;;;;;;;2.87;0.70;;;8.60;99.90;;;;;;5017754;28;20206;-86
2023/01/12 06:18:36;;;;;;;1.60;0.53;;;8.50;99.90;;;;;;5018438;28;20216;-84
2023/01/12 06:21:05;;;;;;;2.70;1.73;;;8.50;99.90;;;;;;5018587;28;20204;-84
2023/01/12 06:23:31;;;;;;;1.23;0.50;;;8.60;99.90;;;;;;5017361;28;20266;-84
2023/01/12 06:26:00;;;;;;;1.07;0.40;;;8.60;99.90;;;;;;5018271;28;20202;-84
2023/01/12 06:28:27;;;;;;;3.20;0.70;;;8.50;99.90;;;;;;5018479;28;20200;-84
2023/01/12 06:30:58;;;;;;;2.80;0.50;;;8.50;99.90;;;;;;5017194;28;20295;-82
2023/01/12 06:33:26;;;;;;;2.97;0.67;;;8.60;99.90;;;;;;5016179;28;20238;-85
2023/01/12 06:35:55;;;;;;;1.43;0.40;;;8.60;99.90;;;;;;5017827;28;20200;-85
2023/01/12 06:38:24;;;;;;;1.83;0.37;;;8.60;99.90;;;;;;5017264;28;20718;-83
2023/01/12 06:40:51;;;;;;;1.57;0.60;;;8.60;99.90;;;;;;5018096;28;20629;-83
2023/01/12 06:43:18;;;;;;;3.40;0.60;;;8.60;99.90;;;;;;5017757;28;20220;-82
2023/01/12 06:45:45;;;;;;;1.77;0.20;;;8.60;99.90;;;;;;5018060;28;20287;-82
2023/01/12 06:48:12;;;;;;;1.87;0.77;;;8.60;99.90;;;;;;5018560;28;20240;-87
2023/01/12 06:50:39;;;;;;;3.57;0.50;;;8.60;99.90;;;;;;5017609;28;20204;-84
2023/01/12 06:53:07;;;;;;;1.03;0.33;;;8.70;99.90;;;;;;5015592;28;20618;-86
2023/01/12 06:55:34;;;;;;;0.93;0.53;;;8.60;99.90;;;;;;4999968;28;20215;-83
2023/01/12 06:58:02;;;;;;;0.53;0.40;;;8.60;99.90;;;;;;4997919;28;20232;-83
2023/01/12 07:00:29;;;;;;;2.43;0.70;;;8.70;99.90;;;;;;4997862;28;20247;-83
2023/01/12 07:02:56;;;;;;;1.80;0.70;;;8.60;99.90;;;;;;4998243;28;20259;-83
2023/01/12 07:05:23;;;;;;;3.13;0.67;;;8.60;99.90;;;;;;5013833;28;20207;-83
2023/01/12 07:07:56;;;;;;;0.53;0.30;;;8.60;99.90;;;;;;5017130;28;20232;-83
2023/01/12 07:10:24;;;;;;;0.47;0.33;;;8.60;99.90;;;;;;5016780;28;20194;-85
2023/01/12 07:12:51;;;;;;;0.63;0.40;;;8.70;99.90;;;;;;5017548;28;20229;-84
2023/01/12 07:15:18;;;;;;;1.90;0.70;;;8.60;99.90;;;;;;5017735;28;20204;-82
2023/01/12 07:17:45;;;;;;;0.80;0.33;;;8.70;99.90;;;;;;5016259;28;20224;-83
2023/01/12 07:20:12;;;;;;;1.37;0.27;;;8.80;99.90;;;;;;5016899;28;20200;-82
2023/01/12 07:22:39;;;;;;;3.90;1.03;;;8.80;99.90;;;;;;5016850;28;20261;-82
2023/01/12 07:25:06;;;;;;;1.70;0.50;;;8.80;99.90;;;;;;5016024;28;20205;-83
2023/01/12 07:27:34;;;;;;;2.03;0.40;;;8.80;99.90;;;;;;5017002;28;20788;-83
2023/01/12 07:30:01;;;;;;;4.83;0.50;;;8.80;99.90;;;;;;5009326;28;20239;-83
2023/01/12 07:32:28;;;;;;;2.27;0.53;;;8.80;99.90;;;;;;5015349;28;20603;-85
2023/01/12 07:34:55;;;;;;;2.80;0.70;;;8.80;99.90;;;;;;4999773;28;20243;-83
2023/01/12 07:37:22;;;;;;;2.30;0.77;;;8.90;99.90;;;;;;4998198;28;20284;-85
2023/01/12 07:39:49;;;;;;;1.00;0.60;;;8.90;99.90;;;;;;5001398;28;20208;-84
2023/01/12 07:42:25;;;;;;;3.87;0.60;;;8.80;99.90;;;;;;5017163;28;20230;-83
2023/01/12 07:44:53;;;;;;;2.20;0.43;;;8.80;99.90;;;;;;5017206;28;20206;-83
2023/01/12 07:47:20;;;;;;;3.20;0.73;;;8.80;99.90;;;;;;5016205;28;20209;-83
2023/01/12 07:49:47;;;;;;;2.50;0.53;;;8.70;99.90;;;;;;5014784;28;20243;-82
2023/01/12 07:52:14;;;;;;;3.63;0.73;;;8.70;99.90;;;;;;4996369;28;20229;-84
2023/01/12 07:54:41;;;;;;;1.50;0.53;;;8.60;99.90;;;;;;4996873;28;20205;-83
2023/01/12 07:57:10;;;;;;;3.73;0.70;;;8.60;99.90;;;;;;4997660;28;20250;-84
2023/01/12 07:59:37;;;;;;;3.37;0.60;;;8.60;99.90;;;;;;4997029;28;20308;-83
2023/01/12 08:02:05;;;;;;;2.47;0.77;;;8.60;99.90;;;;;;5002657;28;20222;-83
2023/01/12 08:04:32;;;;;;;2.83;0.60;;;8.60;99.90;;;;;;5016316;28;20197;-82
2023/01/12 08:06:59;;;;;;;2.97;0.97;;;8.60;99.90;;;;;;5017249;28;20231;-84
2023/01/12 08:09:26;;;;;;;1.13;0.53;;;8.60;99.90;;;;;;5016998;28;20207;-83
2023/01/12 08:11:53;;;;;;;3.27;0.50;;;8.60;99.90;;;;;;5017914;28;20296;-83
2023/01/12 08:14:27;;;;;;;3.20;0.83;;;8.50;99.90;;;;;;5017388;28;20267;-84
2023/01/12 08:16:55;;;;;;;3.17;0.80;;;8.60;99.90;;;;;;5017621;28;20199;-83
2023/01/12 08:19:29;;;;;;;0.43;0.43;;;8.50;99.90;;;;;;5017020;28;20215;-82
2023/01/12 08:22:01;;;;;;;1.70;0.60;;;8.60;99.90;;;;;;5008355;28;20228;-83
2023/01/12 08:24:31;;;;;;;12.43;0.70;;;8.60;99.90;;;;;;5016614;28;20226;-82
2023/01/12 08:27:00;;;;;;;2.27;0.40;;;8.60;99.90;;;;;;5017418;28;20208;-82
2023/01/12 08:29:32;;;;;;;1.70;0.83;;;8.50;99.90;;;;;;5021222;28;20209;-83
2023/01/12 08:32:01;;;;;;;3.17;0.50;;;8.50;99.90;;;;;;5019695;28;20237;-83
2023/01/12 08:34:29;;;;;;;1.27;0.37;;;8.50;99.90;;;;;;5002725;28;20280;-84
2023/01/12 08:36:59;;;;;;;2.27;0.50;;;8.50;99.90;;;;;;5002591;28;20260;-83
2023/01/12 08:39:28;;;;;;;0.80;0.50;;;8.50;99.90;;;;;;5002586;28;20212;-84
2023/01/12 08:41:55;;;;;;;2.47;0.50;;;8.50;99.90;;;;;;5003164;28;20271;-82
2023/01/12 08:44:21;;;;;;;1.83;0.30;;;8.50;99.90;;;;;;5001264;28;20208;-84
2023/01/12 08:46:51;;;;;;;1.97;0.50;;;8.60;99.90;;;;;;5002377;28;20665;-82
2023/01/12 08:49:20;;;;;;;0.33;0.30;;;8.60;99.90;;;;;;5014158;28;20212;-84
2023/01/12 08:51:48;;;;;;;0.87;0.30;;;8.60;99.90;;;;;;5022277;28;20200;-85
2023/01/12 08:54:17;;;;;;;3.10;0.50;;;8.60;99.90;;;;;;5021046;28;20228;-83
2023/01/12 08:56:43;;;;;;;0.87;0.37;;;8.60;99.90;;;;;;5022350;28;20282;-84
2023/01/12 08:59:11;;;;;;;1.27;0.40;;;8.60;99.90;;;;;;5021218;28;20216;-86
2023/01/12 09:01:38;;;;;;;0.67;0.30;;;8.80;99.90;;;;;;5020143;28;20265;-83
2023/01/12 09:04:05;;;;;;;0.63;0.30;;;8.80;99.90;;;;;;5020855;28;20204;-82
2023/01/12 09:06:35;;;;;;;1.93;0.47;;;8.70;99.90;;;;;;5022135;28;20211;-84
2023/01/12 09:09:05;;;;;;;3.30;0.40;;;8.70;99.90;;;;;;5020284;28;20681;-84
2023/01/12 09:11:32;;;;;;;0.47;0.30;;;8.80;99.90;;;;;;5020541;28;20288;-84
2023/01/12 09:13:59;;;;;;;1.07;0.23;;;9.00;99.90;;;;;;5015421;28;20229;-83
2023/01/12 09:16:28;;;;;;;0.50;0.27;;;8.90;99.90;;;;;;5018030;28;20680;-84
2023/01/12 09:18:55;;;;;;;4.20;0.63;;;9.00;99.90;;;;;;5019919;28;20215;-84
2023/01/12 09:21:23;;;;;;;1.07;0.20;;;9.00;99.90;;;;;;5003247;28;20217;-83
2023/01/12 09:23:51;;;;;;;3.10;0.40;;;9.00;99.90;;;;;;5014098;28;20220;-85
2023/01/12 09:26:21;;;;;;;0.67;0.20;;;9.00;99.90;;;;;;5021491;28;20215;-85
2023/01/12 09:28:50;;;;;;;0.20;0.10;;;9.20;99.90;;;;;;5001515;28;20216;-88
2023/01/12 09:31:19;;;;;;;2.40;0.30;;;9.30;99.90;;;;;;5002723;28;20245;-85
2023/01/12 09:33:47;;;;;;;1.33;0.20;;;9.20;99.90;;;;;;5000611;28;20229;-85
2023/01/12 09:36:16;;;;;;;0.63;0.30;;;9.20;99.90;;;;;;5000222;28;20239;-86
2023/01/12 09:38:44;;;;;;;1.70;0.20;;;9.40;99.90;;;;;;4999638;28;20720;-87
2023/01/12 09:41:16;;;;;;;0.30;0.30;;;9.20;99.90;;;;;;5000723;28;20292;-85
2023/01/12 09:49:22;;;;;;;0.10;0.10;;;9.20;99.90;;;;;;5000614;28;20247;-84
2023/01/12 09:51:55;;;;;;;0.20;0.13;;;9.20;99.90;;;;;;5000570;28;20227;-84
2023/01/12 09:54:22;;;;;;;0.73;0.30;;;9.30;99.90;;;;;;5001234;28;20542;-85
2023/01/12 09:56:59;;;;;;;0.67;0.30;;;9.40;99.90;;;;;;5001435;28;20212;-85
2023/01/12 09:59:39;;;;;;;1.60;0.67;;;9.30;99.90;;;;;;5000489;28;20224;-85
2023/01/12 10:02:10;;;;;;;1.10;0.17;;;9.30;99.90;;;;;;4999564;28;20229;-83
2023/01/12 10:04:38;;;;;;;0.20;0.20;;;9.40;99.90;;;;;;5000867;28;20181;-84
2023/01/12 10:07:07;;;;;;;0.90;0.30;;;9.30;99.90;;;;;;5000784;28;20204;-84
2023/01/12 10:09:36;;;;;;;2.90;0.37;;;9.30;99.90;;;;;;5001438;28;20207;-86
2023/01/12 10:12:11;;;;;;;0.20;0.20;;;9.30;99.90;;;;;;5000409;28;20283;-83
2023/01/12 10:15:01;;;;;;;0.20;0.10;;;9.20;99.90;;;;;;5001263;28;20181;-84
2023/01/12 10:17:36;;;;;;;0.73;0.10;;;9.20;99.90;;;;;;5000579;28;20205;-83
2023/01/12 10:20:14;;;;;;;0.10;0.10;;;9.10;99.90;;;;;;4999717;28;20558;-86
2023/01/12 10:22:44;;;;;;;1.10;0.20;;;9.10;99.90;;;;;;5000582;28;20235;-84
2023/01/12 10:25:20;;;;;;;0.43;0.27;;;9.00;99.90;;;;;;5000866;28;20205;-84
2023/01/12 10:27:49;;;;;;;0.70;0.40;;;9.00;99.90;;;;;;4999628;28;20201;-85
2023/01/12 10:30:24;;;;;;;0.20;0.10;;;9.10;99.90;;;;;;4999606;28;20201;-84
2023/01/12 10:32:51;;;;;;;0.87;0.20;;;9.10;99.90;;;;;;4999037;28;20230;-85
2023/01/12 10:35:20;;;;;;;0.23;0.20;;;9.10;99.90;;;;;;4999750;28;20292;-85
2023/01/12 10:37:49;;;;;;;0.97;0.13;;;9.10;99.90;;;;;;4998584;28;20731;-84
2023/01/12 10:40:31;;;;;;;1.07;0.20;;;9.10;99.90;;;;;;4998767;28;20682;-86
2023/01/12 10:43:22;;;;;;;0.30;0.10;;;9.20;99.90;;;;;;4998979;28;20225;-85
2023/01/12 10:46:06;;;;;;;1.17;0.23;;;9.20;99.90;;;;;;4999413;28;20213;-84
2023/01/12 10:48:33;;;;;;;0.80;0.30;;;9.30;99.90;;;;;;5001902;28;20215;-85
2023/01/12 10:51:01;;;;;;;0.00;0.00;;;9.30;99.90;;;;;;5018031;28;20206;-84
2023/01/12 10:53:35;;;;;;;0.20;0.20;;;9.30;99.90;;;;;;5016444;28;20599;-83
2023/01/12 10:56:12;;;;;;;0.73;0.30;;;9.30;99.90;;;;;;4999028;28;20567;-85
2023/01/12 10:58:40;;;;;;;0.40;0.23;;;9.30;99.90;;;;;;4998950;28;20267;-82
2023/01/12 11:01:08;;;;;;;0.10;0.10;;;9.30;99.90;;;;;;5014085;28;20212;-84
2023/01/12 11:03:39;;;;;;;1.33;0.30;;;9.30;99.90;;;;;;5014026;28;20228;-85
2023/01/12 11:06:24;;;;;;;0.37;0.20;;;9.20;99.90;;;;;;5019829;28;20601;-85
2023/01/12 11:08:51;;;;;;;0.43;0.20;;;9.30;99.90;;;;;;5019357;28;20216;-84
2023/01/12 11:11:26;;;;;;;0.73;0.40;;;9.40;99.90;;;;;;5018221;28;20204;-84
2023/01/12 11:13:55;;;;;;;0.47;0.30;;;9.30;99.90;;;;;;5010009;28;20676;-85
2023/01/12 11:16:24;;;;;;;0.53;0.13;;;9.30;99.90;;;;;;4999035;28;20650;-84
2023/01/12 11:19:03;;;;;;;0.20;0.20;;;9.30;99.90;;;;;;5006420;28;20230;-84
2023/01/12 11:21:34;;;;;;;1.00;0.10;;;9.30;99.90;;;;;;5019242;28;20189;-86
2023/01/12 11:24:05;;;;;;;0.30;0.20;;;9.30;99.90;;;;;;5008681;28;20673;-82
2023/01/12 11:26:39;;;;;;;0.20;0.20;;;9.40;99.90;;;;;;4999534;28;20177;-85
2023/01/12 11:29:22;;;;;;;0.50;0.23;;;9.40;99.90;;;;;;5007567;28;20652;-84
2023/01/12 11:31:54;;;;;;;0.17;0.17;;;9.50;99.90;;;;;;5010178;28;20283;-84
2023/01/12 11:34:25;;;;;;;0.23;0.23;;;9.60;99.90;;;;;;5031039;28;20188;-84
2023/01/12 11:36:55;;;;;;;0.20;0.17;;;9.70;99.90;;;;;;5036672;28;20206;-84
2023/01/12 11:39:23;;;;;;;0.97;0.20;;;9.70;99.90;;;;;;5026948;28;20209;-85
2023/01/12 11:44:43;;;;;;;1.13;0.53;;;9.80;99.90;;;;;;5013164;28;20235;-84
2023/01/12 11:47:14;;;;;;;0.10;0.10;;;9.80;99.90;;;;;;5017609;28;20212;-84
2023/01/12 11:49:48;;;;;;;1.17;0.33;;;9.70;99.90;;;;;;5005377;28;20196;-84
2023/01/12 11:52:16;;;;;;;1.20;0.40;;;9.70;99.90;;;;;;4998518;28;20292;-82
2023/01/12 11:54:43;;;;;;;0.83;0.20;;;9.80;99.90;;;;;;4998344;28;20579;-84
2023/01/12 11:57:41;;;;;;;0.23;0.20;;;9.80;99.90;;;;;;5005389;28;20570;-86
2023/01/12 12:00:23;;;;;;;0.20;0.20;;;9.90;99.90;;;;;;5013956;28;20243;-83
2023/01/12 12:03:05;;;;;;;0.23;0.23;;;10.00;99.90;;;;;;5016524;28;20224;-84
2023/01/12 12:05:41;;;;;;;0.53;0.10;;;10.00;99.90;;;;;;5014684;28;20594;-84
2023/01/12 12:08:21;;;;;;;0.40;0.23;;;10.00;99.90;;;;;;5016638;28;20189;-82
2023/01/12 12:10:51;;;;;;;0.10;0.10;;;10.20;99.90;;;;;;5018151;28;20633;-83
2023/01/12 12:13:32;;;;;;;0.30;0.30;;;10.00;99.90;;;;;;5016268;28;20231;-84
2023/01/12 12:16:14;;;;;;;0.30;0.30;;;10.00;99.90;;;;;;5017129;28;20694;-85
2023/01/12 12:18:55;;;;;;;0.20;0.20;;;10.00;99.90;;;;;;5006856;28;20267;-83
2023/01/12 12:21:36;;;;;;;2.00;0.30;;;10.00;99.90;;;;;;4997439;28;20185;-85
2023/01/12 12:24:11;;;;;;;0.33;0.20;;;10.00;99.90;;;;;;4997290;28;20207;-86
2023/01/12 12:26:43;;;;;;;0.47;0.30;;;10.00;99.90;;;;;;4998740;28;20224;-84
2023/01/12 12:29:27;;;;;;;0.30;0.30;;;10.00;99.90;;;;;;5002703;28;20211;-83
2023/01/12 12:32:06;;;;;;;0.23;0.23;;;10.00;99.90;;;;;;5005032;28;20632;-86
2023/01/12 12:34:56;;;;;;;1.40;0.10;;;10.00;99.90;;;;;;5012801;28;20204;-84
2023/01/12 12:37:35;;;;;;;0.20;0.20;;;10.00;99.90;;;;;;5016827;28;20208;-84
2023/01/12 12:40:13;;;;;;;0.30;0.30;;;10.00;99.90;;;;;;5012765;28;20235;-83
2023/01/12 12:45:43;;;;;;;0.40;0.20;;;10.00;99.90;;;;;;5003466;28;20207;-83
2023/01/12 12:48:15;;;;;;;0.20;0.20;;;10.10;99.90;;;;;;5010455;28;20218;-85
2023/01/12 12:50:50;;;;;;;0.40;0.40;;;10.10;99.90;;;;;;5012880;28;20208;-83
2023/01/12 12:53:25;;;;;;;0.30;0.30;;;10.10;99.90;;;;;;5000166;28;20707;-84
2023/01/12 12:55:54;;;;;;;0.27;0.27;;;10.10;99.90;;;;;;5014684;28;20205;-85
2023/01/12 12:58:45;;;;;;;0.50;0.30;;;10.10;99.90;;;;;;5011297;28;20201;-84
2023/01/12 13:01:54;;;;;;;0.10;0.10;;;10.10;99.90;;;;;;5007187;28;20291;-85
2023/01/12 13:04:56;;;;;;;0.90;0.13;;;10.20;99.90;;;;;;5000868;28;20222;-82
2023/01/12 13:07:26;;;;;;;0.10;0.10;;;10.20;99.90;;;;;;5007911;28;20652;-82
2023/01/12 13:10:09;;;;;;;0.20;0.20;;;10.30;99.90;;;;;;5001131;28;20296;-85
2023/01/12 13:12:37;;;;;;;0.20;0.20;;;10.30;99.90;;;;;;5009250;28;20228;-82
2023/01/12 13:15:23;;;;;;;0.30;0.30;;;10.30;99.90;;;;;;5019205;28;20212;-83
2023/01/12 13:17:52;;;;;;;0.63;0.37;;;10.30;99.90;;;;;;5020253;28;20209;-87
2023/01/12 13:20:51;;;;;;;0.30;0.30;;;10.30;99.90;;;;;;5020380;28;20735;-85
2023/01/12 13:23:45;;;;;;;0.80;0.63;;;10.40;99.90;;;;;;5009004;28;20223;-83
2023/01/12 13:26:44;;;;;;;0.30;0.27;;;10.40;99.90;;;;;;5007716;28;20204;-83
2023/01/12 13:29:43;;;;;;;0.30;0.30;;;10.40;99.90;;;;;;5025646;28;20621;-83
2023/01/12 13:32:34;;;;;;;0.47;0.20;;;10.40;99.90;;;;;;5020841;28;20576;-83
2023/01/12 13:35:01;;;;;;;0.27;0.20;;;10.40;99.90;;;;;;5007178;28;20206;-84
2023/01/12 13:37:38;;;;;;;0.63;0.30;;;10.40;99.90;;;;;;5002539;28;20573;-83
2023/01/12 13:40:17;;;;;;;0.20;0.20;;;10.40;99.90;;;;;;5016765;28;20228;-82
2023/01/12 13:45:30;;;;;;;0.70;0.20;;;10.50;99.90;;;;;;5001509;28;20204;-83
2023/01/12 13:47:58;;;;;;;0.40;0.30;;;10.50;99.90;;;;;;5009602;28;20251;-83
2023/01/12 13:50:27;;;;;;;0.20;0.20;;;10.40;99.90;;;;;;5030341;28;20195;-84
2023/01/12 13:52:57;;;;;;;0.37;0.10;;;10.50;99.90;;;;;;5018922;28;20217;-83
2023/01/12 13:55:28;;;;;;;0.20;0.20;;;10.50;99.90;;;;;;5030143;28;20207;-85